Time;durP1;ratioP1;P1;durP2;ratioP2;P2;SDS_P1;SDS_P2;PMS_P1;PMS_P2;Temp;Humidity;BMP_temperature;BMP_pressure;BME280_temperature;BME280_humidity;BME280_pressure;Samples;Min_cycle;Max_cycle;Signal;HPM_P1;HPM_P2
2023/02/06 00:01:19;;;;;;;8.90;7.37;;;0.80;96.90;;;;;;4999987;28;20217;-90
2023/02/06 00:03:47;;;;;;;9.50;7.03;;;0.80;97.20;;;;;;5005690;28;20210;-90
2023/02/06 00:06:14;;;;;;;10.30;7.40;;;0.90;97.10;;;;;;5000447;28;20683;-90
2023/02/06 00:08:42;;;;;;;8.30;6.47;;;0.90;96.70;;;;;;5010605;28;20214;-90
2023/02/06 00:11:12;;;;;;;8.87;6.70;;;1.00;96.80;;;;;;5008082;28;20210;-90
2023/02/06 00:13:39;;;;;;;7.90;6.63;;;1.00;96.40;;;;;;5010672;28;20568;-89
2023/02/06 00:16:15;;;;;;;9.13;7.07;;;1.10;96.40;;;;;;5009167;28;20577;-89
2023/02/06 00:18:41;;;;;;;9.47;7.30;;;1.10;96.10;;;;;;5005002;28;20217;-91
2023/02/06 00:21:10;;;;;;;9.50;7.03;;;1.10;96.10;;;;;;4984743;28;20207;-90
2023/02/06 00:23:37;;;;;;;10.37;7.43;;;1.10;96.20;;;;;;5001980;28;20239;-90
2023/02/06 00:26:04;;;;;;;8.20;6.50;;;1.10;96.00;;;;;;4998558;28;20207;-90
2023/02/06 00:28:31;;;;;;;7.87;6.47;;;1.20;95.40;;;;;;5009424;28;20210;-89
2023/02/06 00:30:58;;;;;;;12.77;6.87;;;1.30;95.10;;;;;;5005355;28;20223;-90
2023/02/06 00:33:24;;;;;;;8.93;7.03;;;1.30;95.10;;;;;;4999188;28;20574;-89
2023/02/06 00:35:51;;;;;;;9.17;6.90;;;1.20;95.60;;;;;;5007824;28;20582;-90
2023/02/06 00:38:20;;;;;;;8.27;6.80;;;1.10;95.60;;;;;;5008304;28;20241;-90
2023/02/06 00:40:47;;;;;;;11.80;7.00;;;1.10;95.70;;;;;;5006940;28;20211;-89
2023/02/06 00:43:14;;;;;;;9.70;7.23;;;1.10;95.90;;;;;;5006975;28;20213;-90
2023/02/06 00:45:41;;;;;;;9.60;6.97;;;1.20;95.90;;;;;;4986511;28;20233;-90
2023/02/06 00:48:09;;;;;;;9.53;7.47;;;1.20;95.60;;;;;;4991999;28;20214;-90
2023/02/06 00:50:36;;;;;;;7.93;6.50;;;1.20;95.40;;;;;;5006817;28;20646;-90
2023/02/06 00:53:03;;;;;;;9.83;7.33;;;1.20;95.20;;;;;;5006770;28;20215;-90
2023/02/06 00:55:31;;;;;;;8.43;7.23;;;1.10;95.30;;;;;;5006904;28;20211;-90
2023/02/06 00:57:58;;;;;;;10.70;7.67;;;1.20;95.60;;;;;;5007619;28;20230;-90
2023/02/06 01:00:25;;;;;;;10.83;7.23;;;1.20;95.60;;;;;;5003693;28;20738;-90
2023/02/06 01:02:52;;;;;;;10.23;7.20;;;1.30;95.40;;;;;;4992201;28;20222;-90
2023/02/06 01:05:19;;;;;;;8.23;7.13;;;1.30;94.90;;;;;;5002747;28;20215;-90
2023/02/06 01:07:46;;;;;;;9.07;7.17;;;1.40;94.30;;;;;;5003915;28;20214;-90
2023/02/06 01:10:13;;;;;;;8.97;7.17;;;1.30;94.30;;;;;;5008503;28;20210;-90
2023/02/06 01:12:42;;;;;;;8.27;7.17;;;1.30;94.30;;;;;;5020767;28;20193;-90
2023/02/06 01:15:12;;;;;;;9.70;7.13;;;1.30;94.40;;;;;;5032280;28;20207;-90
2023/02/06 01:17:40;;;;;;;8.03;6.83;;;1.20;94.60;;;;;;4998493;28;20764;-89
2023/02/06 01:20:10;;;;;;;9.63;7.70;;;1.20;94.50;;;;;;5008038;28;20207;-90
2023/02/06 01:22:37;;;;;;;10.43;7.83;;;1.10;95.00;;;;;;5000846;28;20221;-90
2023/02/06 01:25:05;;;;;;;9.93;7.27;;;1.00;95.20;;;;;;5003535;28;20722;-89
2023/02/06 01:27:34;;;;;;;8.87;7.40;;;1.00;95.20;;;;;;5002137;28;20219;-90
2023/02/06 01:30:03;;;;;;;11.23;7.40;;;1.00;95.40;;;;;;5004413;28;20211;-89
2023/02/06 01:32:30;;;;;;;8.33;7.30;;;1.20;95.20;;;;;;5011039;28;20207;-90
2023/02/06 01:34:57;;;;;;;8.93;7.40;;;1.40;94.30;;;;;;5005114;28;20213;-90
2023/02/06 01:37:24;;;;;;;9.37;7.90;;;1.40;94.00;;;;;;5010663;28;20892;-90
2023/02/06 01:39:51;;;;;;;9.23;8.00;;;1.30;94.30;;;;;;5011136;28;20199;-89
2023/02/06 01:42:17;;;;;;;8.83;7.53;;;1.30;94.30;;;;;;5017401;28;20257;-90
2023/02/06 01:44:44;;;;;;;9.20;7.60;;;1.30;94.30;;;;;;5028785;28;20191;-89
2023/02/06 01:47:13;;;;;;;9.60;7.50;;;1.30;93.80;;;;;;5024726;28;20216;-89
2023/02/06 01:49:43;;;;;;;10.60;7.40;;;1.20;94.00;;;;;;5012332;28;20262;-89
2023/02/06 01:52:16;;;;;;;8.27;7.00;;;1.20;94.30;;;;;;4978571;28;20208;-89
2023/02/06 01:54:46;;;;;;;10.20;7.50;;;1.20;94.30;;;;;;5016931;28;20210;-90
2023/02/06 01:57:14;;;;;;;8.53;7.63;;;1.20;93.60;;;;;;5001835;28;20717;-90
2023/02/06 01:59:45;;;;;;;10.00;7.37;;;1.20;94.00;;;;;;5013627;28;20202;-90
2023/02/06 02:02:14;;;;;;;9.87;7.63;;;1.20;93.90;;;;;;5016078;28;20208;-89
2023/02/06 02:04:41;;;;;;;9.70;7.97;;;1.20;94.30;;;;;;5000567;28;20213;-89
2023/02/06 02:07:15;;;;;;;10.40;7.63;;;1.10;94.20;;;;;;5009505;28;20580;-90
2023/02/06 02:09:42;;;;;;;8.80;7.47;;;1.10;94.30;;;;;;5006919;28;20211;-90
2023/02/06 02:12:09;;;;;;;9.83;7.80;;;1.10;94.30;;;;;;5011765;28;20219;-89
2023/02/06 02:14:38;;;;;;;10.27;8.70;;;1.10;94.30;;;;;;5008793;28;20214;-89
2023/02/06 02:17:22;;;;;;;9.70;8.23;;;1.10;94.20;;;;;;5011797;28;20223;-90
2023/02/06 02:20:28;;;;;;;11.13;8.03;;;1.20;94.30;;;;;;5010955;28;20222;-90
2023/02/06 02:23:17;;;;;;;9.10;7.93;;;1.10;94.50;;;;;;5006922;28;20200;-89
2023/02/06 02:26:23;;;;;;;8.73;7.73;;;1.10;94.30;;;;;;5010644;28;21013;-90
2023/02/06 02:29:38;;;;;;;10.10;8.10;;;1.10;94.50;;;;;;4995737;28;20208;-90
2023/02/06 02:32:26;;;;;;;8.23;7.30;;;1.20;94.30;;;;;;4992202;28;20319;-90
2023/02/06 02:35:07;;;;;;;11.37;8.57;;;1.20;94.30;;;;;;5012080;28;20215;-90
2023/02/06 02:37:49;;;;;;;11.80;7.70;;;1.20;94.30;;;;;;5011144;28;20227;-90
2023/02/06 02:40:22;;;;;;;8.97;7.67;;;1.20;94.30;;;;;;4996979;28;20212;-89
2023/02/06 02:42:57;;;;;;;9.00;8.03;;;1.30;93.50;;;;;;5003112;28;20207;-89
2023/02/06 02:45:30;;;;;;;9.53;7.40;;;1.30;93.30;;;;;;5007833;28;20215;-90
2023/02/06 02:48:03;;;;;;;11.10;8.37;;;1.30;93.30;;;;;;4987031;28;20203;-90
2023/02/06 02:50:33;;;;;;;8.53;7.30;;;1.40;93.20;;;;;;5010251;28;20250;-90
2023/02/06 02:53:02;;;;;;;8.73;7.10;;;1.40;92.70;;;;;;5012610;28;20203;-90
2023/02/06 02:55:29;;;;;;;9.70;7.90;;;1.40;92.70;;;;;;4972656;28;20207;-89
2023/02/06 02:58:03;;;;;;;9.63;7.80;;;1.30;93.10;;;;;;5005554;28;20226;-90
2023/02/06 03:00:32;;;;;;;11.23;8.00;;;1.20;93.40;;;;;;5009237;28;21033;-89
2023/02/06 03:02:59;;;;;;;8.50;7.23;;;1.20;93.70;;;;;;5008102;28;20212;-89
2023/02/06 03:05:27;;;;;;;9.97;7.97;;;1.10;93.80;;;;;;5005558;28;20207;-90
2023/02/06 03:08:09;;;;;;;9.93;8.43;;;1.10;94.10;;;;;;5005559;28;20200;-90
2023/02/06 03:10:44;;;;;;;11.90;8.27;;;1.10;94.20;;;;;;5006635;28;20341;-89
2023/02/06 03:13:17;;;;;;;11.53;8.20;;;1.00;94.20;;;;;;5007900;28;20206;-90
2023/02/06 03:15:51;;;;;;;9.53;8.17;;;0.90;94.40;;;;;;4992019;28;20215;-90
2023/02/06 03:18:22;;;;;;;11.07;8.43;;;0.90;94.20;;;;;;5008333;28;20227;-89
2023/02/06 03:20:50;;;;;;;10.07;8.30;;;1.00;94.70;;;;;;5009473;28;20214;-90
2023/02/06 03:23:23;;;;;;;9.27;7.70;;;0.90;94.60;;;;;;5006409;28;20230;-89
2023/02/06 03:25:54;;;;;;;11.03;8.57;;;0.90;94.40;;;;;;4982661;28;20199;-90
2023/02/06 03:28:25;;;;;;;10.63;8.10;;;0.80;95.10;;;;;;5000486;28;20679;-90
2023/02/06 03:30:55;;;;;;;9.47;8.27;;;0.80;95.20;;;;;;5011664;28;20644;-89
2023/02/06 03:33:35;;;;;;;10.30;8.47;;;0.70;95.40;;;;;;5008470;28;20207;-90
2023/02/06 03:36:04;;;;;;;11.57;8.93;;;0.60;95.80;;;;;;5008346;28;20286;-90
2023/02/06 03:38:33;;;;;;;10.80;8.70;;;0.40;96.20;;;;;;4983935;28;20227;-90
2023/02/06 03:41:01;;;;;;;11.50;9.47;;;0.40;96.60;;;;;;4983746;28;20216;-90
2023/02/06 03:43:29;;;;;;;11.27;9.00;;;0.40;96.70;;;;;;5013847;28;20210;-88
2023/02/06 03:45:59;;;;;;;13.10;9.37;;;0.30;96.70;;;;;;5008672;28;20220;-89
2023/02/06 03:48:32;;;;;;;11.27;8.87;;;0.30;96.80;;;;;;5018138;28;20211;-86
2023/02/06 03:51:03;;;;;;;12.60;9.23;;;0.30;96.70;;;;;;5019322;28;20239;-89
2023/02/06 03:53:34;;;;;;;11.87;9.03;;;0.20;96.70;;;;;;5003644;28;20874;-90
2023/02/06 03:56:08;;;;;;;12.50;9.73;;;0.20;96.70;;;;;;5004930;28;20645;-90
2023/02/06 03:58:35;;;;;;;13.53;9.57;;;0.10;96.70;;;;;;4986969;28;20289;-89
2023/02/06 04:01:04;;;;;;;11.43;8.87;;;0.10;96.60;;;;;;4987970;28;20754;-90
2023/02/06 04:03:31;;;;;;;15.23;9.30;;;0.20;96.30;;;;;;5006662;28;20211;-89
2023/02/06 04:05:58;;;;;;;12.27;9.27;;;0.30;95.50;;;;;;5002101;28;20206;-90
2023/02/06 04:08:25;;;;;;;12.43;9.03;;;0.30;95.20;;;;;;4984315;28;20222;-90
2023/02/06 04:10:54;;;;;;;11.17;8.80;;;0.40;94.80;;;;;;5006154;28;20225;-89
2023/02/06 04:13:20;;;;;;;9.97;8.70;;;0.40;94.30;;;;;;5008083;28;20214;-90
2023/02/06 04:15:47;;;;;;;10.30;8.30;;;0.40;94.50;;;;;;5012271;28;20211;-90
2023/02/06 04:18:14;;;;;;;10.57;8.77;;;0.40;94.10;;;;;;5009203;28;20594;-89
2023/02/06 04:20:41;;;;;;;10.90;8.70;;;0.30;94.40;;;;;;5022543;28;20652;-89
2023/02/06 04:23:09;;;;;;;11.07;8.63;;;0.20;94.70;;;;;;5011144;28;20213;-89
2023/02/06 04:25:36;;;;;;;11.17;8.47;;;0.20;94.80;;;;;;5003956;28;20221;-89
2023/02/06 04:28:04;;;;;;;9.80;8.40;;;0.00;95.00;;;;;;4997564;28;20217;-89
2023/02/06 04:30:31;;;;;;;10.77;8.30;;;-0.10;95.20;;;;;;5018908;28;20213;-89
2023/02/06 04:32:58;;;;;;;10.17;8.23;;;-0.10;95.10;;;;;;4990401;28;20218;-90
2023/02/06 04:35:25;;;;;;;9.60;7.90;;;-0.20;95.40;;;;;;5003784;28;20199;-90
2023/02/06 04:37:53;;;;;;;11.03;8.50;;;-0.30;95.20;;;;;;5006413;28;20692;-89
2023/02/06 04:40:20;;;;;;;12.70;8.23;;;-0.30;95.20;;;;;;5004516;28;20261;-90
2023/02/06 04:42:47;;;;;;;10.50;8.30;;;-0.30;95.20;;;;;;5002660;28;20195;-90
2023/02/06 04:45:15;;;;;;;10.63;8.40;;;-0.30;95.30;;;;;;4992647;28;20207;-90
2023/02/06 04:47:42;;;;;;;13.23;8.30;;;-0.20;95.20;;;;;;5005039;28;20245;-90
2023/02/06 04:50:10;;;;;;;10.00;8.40;;;-0.20;94.80;;;;;;5004605;28;20238;-90
2023/02/06 04:52:37;;;;;;;13.03;8.70;;;-0.20;94.90;;;;;;4970802;28;20267;-89
2023/02/06 04:55:04;;;;;;;10.07;8.33;;;-0.30;94.60;;;;;;4989909;28;20200;-90
2023/02/06 04:57:31;;;;;;;17.70;8.97;;;-0.30;94.70;;;;;;4996142;28;20666;-90
2023/02/06 04:59:58;;;;;;;10.17;8.47;;;-0.40;94.70;;;;;;5008148;28;20218;-89
2023/02/06 05:02:26;;;;;;;10.20;8.60;;;-0.40;95.10;;;;;;5009957;28;20229;-89
2023/02/06 05:04:53;;;;;;;11.57;8.70;;;-0.40;95.10;;;;;;5008015;28;20204;-89
2023/02/06 05:07:20;;;;;;;10.57;8.63;;;-0.40;95.30;;;;;;5006361;28;20210;-90
2023/02/06 05:09:47;;;;;;;11.73;8.87;;;-0.40;95.50;;;;;;5002555;28;20206;-88
2023/02/06 05:12:13;;;;;;;12.00;8.97;;;-0.50;95.60;;;;;;5007037;28;20214;-90
2023/02/06 05:14:42;;;;;;;11.93;8.63;;;-0.70;95.90;;;;;;4993206;28;20286;-90
2023/02/06 05:17:09;;;;;;;10.90;8.63;;;-0.70;96.20;;;;;;5005356;28;20203;-91
2023/02/06 05:19:37;;;;;;;11.73;9.47;;;-0.80;96.50;;;;;;5010811;28;20236;-89
2023/02/06 05:22:04;;;;;;;13.10;9.17;;;-0.80;96.70;;;;;;4986794;28;20217;-90
2023/02/06 05:24:31;;;;;;;13.07;9.33;;;-0.90;96.90;;;;;;4987006;28;20634;-89
2023/02/06 05:26:58;;;;;;;12.67;9.17;;;-0.90;97.00;;;;;;5009010;28;20857;-90
2023/02/06 05:29:25;;;;;;;10.00;8.37;;;-0.90;97.20;;;;;;5004862;28;20215;-90
2023/02/06 05:31:52;;;;;;;12.57;9.27;;;-0.90;97.30;;;;;;5007154;28;20213;-90
2023/02/06 05:34:19;;;;;;;11.67;9.30;;;-0.70;96.90;;;;;;5007484;28;20298;-90
2023/02/06 05:36:47;;;;;;;11.77;9.00;;;-0.60;96.50;;;;;;5013626;28;20209;-90
2023/02/06 05:39:15;;;;;;;12.50;9.70;;;-0.60;96.70;;;;;;5010035;28;20241;-89
2023/02/06 05:41:42;;;;;;;10.73;8.87;;;-0.60;96.50;;;;;;5006842;28;20211;-90
2023/02/06 05:44:09;;;;;;;12.93;9.43;;;-0.60;96.40;;;;;;5008246;28;20214;-89
2023/02/06 05:46:37;;;;;;;14.30;9.20;;;-0.60;96.30;;;;;;4982917;28;20218;-89
2023/02/06 05:49:04;;;;;;;13.70;9.93;;;-0.70;96.40;;;;;;5019210;28;20217;-90
2023/02/06 05:51:31;;;;;;;12.03;9.40;;;-0.80;96.70;;;;;;5000451;28;20238;-89
2023/02/06 05:53:59;;;;;;;13.53;10.23;;;-0.90;96.90;;;;;;5004487;28;20249;-89
2023/02/06 05:56:26;;;;;;;14.47;10.43;;;-1.00;97.30;;;;;;5007376;28;20222;-89
2023/02/06 05:58:53;;;;;;;13.00;10.57;;;-1.10;97.60;;;;;;5005127;28;20647;-89
2023/02/06 06:01:20;;;;;;;12.63;10.17;;;-1.20;97.90;;;;;;5002536;28;20552;-88
2023/02/06 06:03:47;;;;;;;15.53;10.77;;;-1.30;98.10;;;;;;5000279;28;20195;-89
2023/02/06 06:06:14;;;;;;;13.67;10.17;;;-1.30;98.40;;;;;;5006111;28;20221;-89
2023/02/06 06:08:41;;;;;;;13.67;10.40;;;-1.30;98.60;;;;;;5004507;28;20853;-89
2023/02/06 06:11:09;;;;;;;15.30;10.97;;;-1.20;98.50;;;;;;4999673;28;20561;-90
2023/02/06 06:13:36;;;;;;;14.73;10.97;;;-1.20;98.50;;;;;;5007006;28;20210;-90
2023/02/06 06:16:03;;;;;;;14.90;11.27;;;-1.30;98.60;;;;;;5004142;28;20209;-91
2023/02/06 06:18:30;;;;;;;13.45;10.90;;;-1.30;98.90;;;;;;6064751;22;21182;-91
2023/02/06 06:20:57;;;;;;;15.80;11.80;;;-1.30;98.90;;;;;;5222631;23;20228;-89
2023/02/06 06:59:34;;;;;;;14.80;10.53;;;-1.10;98.90;;;;;;5038801;28;20233;-93
2023/02/06 07:02:01;;;;;;;13.80;10.83;;;-1.10;99.00;;;;;;5029413;28;20209;-92
2023/02/06 07:04:30;;;;;;;15.67;10.90;;;-1.00;98.90;;;;;;5031272;28;20210;-92
2023/02/06 07:06:57;;;;;;;14.37;11.17;;;-1.00;98.50;;;;;;5023974;28;20195;-90
2023/02/06 07:09:24;;;;;;;15.90;11.57;;;-1.00;98.50;;;;;;5100822;23;20320;-88
2023/02/06 07:11:51;;;;;;;16.03;12.00;;;-1.10;98.90;;;;;;5051468;28;20655;-90
2023/02/06 07:14:18;;;;;;;16.53;12.33;;;-1.10;99.00;;;;;;5066311;28;20208;-92
2023/02/06 07:16:46;;;;;;;18.33;14.03;;;-1.10;99.00;;;;;;5059211;28;20658;-88
2023/02/06 07:19:13;;;;;;;19.33;13.07;;;-1.00;99.00;;;;;;5051689;28;20240;-84
2023/02/06 07:21:40;;;;;;;20.67;14.13;;;-1.10;99.00;;;;;;5051935;28;20206;-85
2023/02/06 07:24:08;;;;;;;20.00;13.67;;;-1.10;99.10;;;;;;5038508;28;20236;-86
2023/02/06 07:26:35;;;;;;;21.13;13.77;;;-1.00;99.50;;;;;;5004212;28;20678;-86
2023/02/06 07:29:01;;;;;;;18.60;14.40;;;-0.90;99.30;;;;;;5021746;28;20213;-85
2023/02/06 07:31:28;;;;;;;21.00;15.23;;;-0.70;99.00;;;;;;5028623;28;20877;-86
2023/02/06 07:33:57;;;;;;;22.40;15.20;;;-0.60;99.10;;;;;;5033627;28;20212;-86
2023/02/06 07:36:24;;;;;;;16.80;13.03;;;-0.60;99.10;;;;;;5026724;28;20559;-86
2023/02/06 07:38:50;;;;;;;19.97;13.63;;;-0.60;99.00;;;;;;5008381;28;20227;-86
2023/02/06 07:41:17;;;;;;;19.67;13.63;;;-0.50;98.70;;;;;;5027507;28;20557;-85
2023/02/06 07:43:46;;;;;;;12.23;9.87;;;-0.30;98.30;;;;;;5020724;28;20217;-83
2023/02/06 07:46:13;;;;;;;14.67;10.30;;;-0.10;97.70;;;;;;5000866;28;20221;-85
2023/02/06 07:48:41;;;;;;;14.63;10.10;;;-0.10;96.60;;;;;;5020068;28;20202;-84
2023/02/06 07:51:10;;;;;;;12.20;9.93;;;-0.10;96.20;;;;;;5017761;28;20249;-85
2023/02/06 07:53:37;;;;;;;12.10;9.50;;;0.10;96.00;;;;;;5025586;28;20250;-86
2023/02/06 07:56:11;;;;;;;12.03;9.70;;;0.40;95.40;;;;;;5014165;28;20297;-86
2023/02/06 07:58:38;;;;;;;11.93;9.63;;;0.70;94.40;;;;;;5031773;28;20288;-87
2023/02/06 08:01:06;;;;;;;12.33;9.30;;;0.90;94.20;;;;;;5001293;28;20728;-88
2023/02/06 08:03:33;;;;;;;15.33;9.80;;;1.00;94.00;;;;;;5020230;28;20202;-85
2023/02/06 08:06:00;;;;;;;13.97;9.77;;;0.90;93.00;;;;;;5028225;28;20260;-90
2023/02/06 08:08:29;;;;;;;13.63;10.20;;;1.00;93.00;;;;;;5033607;28;20702;-88
2023/02/06 08:10:56;;;;;;;13.70;9.97;;;1.10;93.00;;;;;;5026748;28;20213;-87
2023/02/06 08:13:22;;;;;;;15.27;10.57;;;1.10;92.90;;;;;;5030071;28;20199;-88
2023/02/06 08:15:49;;;;;;;12.43;9.80;;;1.10;92.30;;;;;;5024118;28;20222;-87
2023/02/06 08:18:16;;;;;;;12.50;10.10;;;1.00;91.50;;;;;;5023998;28;20229;-86
2023/02/06 08:20:43;;;;;;;12.23;9.60;;;0.80;92.50;;;;;;5031721;28;20933;-87
2023/02/06 08:23:10;;;;;;;14.83;9.60;;;0.90;92.10;;;;;;5024485;28;20198;-89
2023/02/06 08:25:39;;;;;;;10.53;7.93;;;0.80;91.60;;;;;;5024657;28;20256;-87
2023/02/06 08:28:08;;;;;;;12.13;8.23;;;0.80;90.90;;;;;;5026075;28;20203;-89
2023/02/06 08:30:35;;;;;;;11.17;8.17;;;0.80;91.30;;;;;;5020185;28;20265;-88
2023/02/06 08:33:02;;;;;;;9.37;7.47;;;0.90;90.60;;;;;;5025594;28;20206;-88
2023/02/06 08:35:29;;;;;;;10.67;7.07;;;1.20;89.60;;;;;;4985634;28;20207;-89
2023/02/06 08:37:56;;;;;;;11.83;7.87;;;1.20;90.10;;;;;;5007506;28;20203;-86
2023/02/06 08:40:23;;;;;;;9.47;7.17;;;1.40;86.70;;;;;;5018635;28;20303;-87
2023/02/06 08:42:53;;;;;;;9.17;6.53;;;1.40;83.40;;;;;;5032384;28;20207;-92
2023/02/06 08:47:56;;;;;;;10.10;6.53;;;1.10;82.50;;;;;;5123142;23;20229;-93
2023/02/06 08:50:23;;;;;;;9.63;6.33;;;1.20;81.40;;;;;;5041612;28;20703;-89
2023/02/06 08:52:50;;;;;;;7.33;5.90;;;1.20;82.00;;;;;;5040994;28;20213;-89
2023/02/06 08:55:17;;;;;;;9.20;5.67;;;1.30;81.60;;;;;;5052947;28;20186;-89
2023/02/06 08:57:44;;;;;;;8.07;6.17;;;1.30;77.20;;;;;;5066140;28;20178;-90
2023/02/06 09:00:15;;;;;;;7.27;5.87;;;1.30;78.10;;;;;;5031818;28;20221;-90
2023/02/06 09:02:42;;;;;;;9.10;6.20;;;1.50;79.10;;;;;;5038652;28;20197;-90
2023/02/06 09:05:08;;;;;;;9.63;5.77;;;1.60;77.90;;;;;;5051108;28;20197;-90
2023/02/06 09:07:35;;;;;;;8.40;5.60;;;1.70;75.60;;;;;;5044770;28;20206;-91
2023/02/06 09:10:02;;;;;;;6.63;5.93;;;2.10;72.30;;;;;;5049981;28;20290;-89
2023/02/06 09:12:29;;;;;;;8.60;6.27;;;2.20;66.80;;;;;;5044993;28;20204;-90
2023/02/06 09:14:56;;;;;;;9.13;5.90;;;2.40;67.00;;;;;;5038777;28;20203;-92
2023/02/06 09:17:24;;;;;;;8.67;5.83;;;2.60;64.30;;;;;;5041397;28;20199;-89
2023/02/06 09:19:51;;;;;;;8.57;6.23;;;2.50;64.00;;;;;;5037950;28;20237;-91
2023/02/06 09:22:18;;;;;;;10.93;5.73;;;2.40;64.10;;;;;;5044958;28;20255;-91
2023/02/06 09:24:45;;;;;;;6.47;5.80;;;2.50;65.50;;;;;;5028073;28;20725;-92
2023/02/06 09:27:12;;;;;;;7.27;5.07;;;2.70;67.30;;;;;;5025746;28;20199;-96
2023/02/06 09:29:39;;;;;;;7.15;5.05;;;3.10;62.00;;;;;;5029187;28;20210;-92
2023/02/06 09:32:06;;;;;;;7.10;4.75;;;3.80;50.80;;;;;;5030988;28;20210;-94
2023/02/06 09:40:36;;;;;;;7.55;5.10;;;5.40;35.50;;;;;;5056141;28;20677;-96
2023/02/06 09:43:03;;;;;;;8.73;5.30;;;5.80;33.40;;;;;;5045513;28;20206;-96
2023/02/06 09:45:33;;;;;;;7.00;5.13;;;6.40;29.60;;;;;;5025453;28;20207;-92
2023/02/06 09:48:11;;;;;;;5.45;4.38;;;6.60;28.40;;;;;;5023211;28;20236;-91
2023/02/06 09:53:36;;;;;;;6.75;5.03;;;5.40;30.00;;;;;;5025430;28;20219;-90
2023/02/06 10:18:09;;;;;;;6.25;4.63;;;3.50;43.00;;;;;;5197250;23;20306;-93
2023/02/06 10:20:40;;;;;;;6.60;4.63;;;3.10;42.80;;;;;;5011417;28;20218;-89
2023/02/06 10:23:15;;;;;;;5.17;3.80;;;3.00;46.00;;;;;;5026037;28;20215;-87
2023/02/06 10:28:29;;;;;;;7.00;4.83;;;3.90;39.90;;;;;;5126123;23;20867;-84
2023/02/06 10:31:19;;;;;;;9.27;5.17;;;3.60;43.20;;;;;;5008480;28;20210;-84
2023/02/06 10:33:55;;;;;;;7.13;4.90;;;3.10;42.90;;;;;;5018411;28;20203;-85
2023/02/06 10:36:40;;;;;;;10.13;4.50;;;2.90;46.20;;;;;;5018183;28;20199;-87
2023/02/06 10:39:37;;;;;;;9.40;4.30;;;2.80;51.50;;;;;;5025715;28;20751;-90
2023/02/06 10:47:26;;;;;;;8.47;5.07;;;2.80;57.50;;;;;;5002034;28;20341;-88
2023/02/06 10:55:27;;;;;;;5.90;5.30;;;2.90;50.90;;;;;;5062984;23;20240;-91
2023/02/06 10:58:04;;;;;;;5.27;4.70;;;3.10;48.60;;;;;;5057333;28;20876;-89
2023/02/06 11:00:32;;;;;;;9.17;5.00;;;2.90;53.60;;;;;;5056389;28;20217;-90
2023/02/06 11:03:02;;;;;;;7.63;4.73;;;2.70;58.20;;;;;;5063180;28;20205;-90
2023/02/06 11:05:31;;;;;;;8.23;4.90;;;2.70;57.20;;;;;;5062086;28;20677;-87
2023/02/06 11:08:03;;;;;;;8.10;5.27;;;2.60;56.40;;;;;;5060900;28;20208;-87
2023/02/06 11:10:31;;;;;;;6.53;4.60;;;2.50;58.10;;;;;;5057207;28;20208;-86
2023/02/06 11:13:02;;;;;;;7.43;4.63;;;2.60;54.20;;;;;;5062233;28;20733;-87
2023/02/06 11:15:33;;;;;;;13.30;4.70;;;2.50;53.70;;;;;;5063823;28;20205;-87
2023/02/06 11:18:05;;;;;;;6.80;5.10;;;2.40;55.10;;;;;;5058586;28;20220;-86
2023/02/06 11:20:36;;;;;;;14.33;5.63;;;2.30;56.10;;;;;;5052488;28;20233;-85
2023/02/06 11:23:16;;;;;;;10.60;4.90;;;2.30;56.80;;;;;;5057449;28;20882;-86
2023/02/06 11:25:44;;;;;;;8.73;5.23;;;2.30;62.70;;;;;;5057300;28;20267;-86
2023/02/06 11:28:15;;;;;;;7.23;4.67;;;2.40;62.90;;;;;;5062419;28;20208;-86
2023/02/06 11:30:54;;;;;;;7.00;5.10;;;2.70;57.50;;;;;;5068626;28;20209;-88
2023/02/06 11:33:29;;;;;;;6.03;4.93;;;2.80;54.30;;;;;;5056713;28;20206;-88
2023/02/06 11:35:59;;;;;;;6.17;4.97;;;2.60;56.90;;;;;;5072811;28;20639;-86
2023/02/06 11:38:28;;;;;;;7.43;4.87;;;2.60;54.20;;;;;;5054647;28;20283;-88
2023/02/06 11:40:59;;;;;;;9.37;5.07;;;2.50;55.70;;;;;;5062951;28;20217;-90
2023/02/06 11:46:08;;;;;;;6.50;5.10;;;2.40;57.10;;;;;;5012657;28;20231;-91
2023/02/06 11:48:39;;;;;;;7.27;4.40;;;2.40;58.90;;;;;;5017980;28;20211;-89
2023/02/06 11:51:57;;;;;;;8.60;4.37;;;2.10;66.70;;;;;;5014350;28;20211;-85
2023/02/06 11:54:28;;;;;;;5.57;4.60;;;2.10;66.70;;;;;;5011417;28;20542;-85
2023/02/06 11:57:06;;;;;;;7.47;5.20;;;2.20;66.80;;;;;;5010927;28;20253;-91
2023/02/06 11:59:36;;;;;;;7.50;4.90;;;2.20;66.80;;;;;;5006618;28;20269;-88
2023/02/06 12:02:24;;;;;;;8.50;5.20;;;2.00;66.60;;;;;;5012809;28;20475;-83
2023/02/06 12:04:57;;;;;;;7.60;5.50;;;2.00;67.90;;;;;;5366948;23;20221;-92
2023/02/06 12:10:13;;;;;;;9.87;5.30;;;2.00;68.60;;;;;;5026864;28;20223;-89
2023/02/06 12:18:18;;;;;;;13.50;5.40;;;2.20;66.80;;;;;;5014525;28;20301;-90
2023/02/06 12:20:52;;;;;;;8.90;5.73;;;2.10;66.70;;;;;;5026847;28;20242;-89
2023/02/06 12:23:32;;;;;;;13.53;8.33;;;2.00;69.60;;;;;;5025716;28;20218;-89
2023/02/06 12:39:44;;;;;;;6.27;4.93;;;2.10;71.80;;;;;;5085070;28;20558;-85
2023/02/06 12:42:27;;;;;;;9.30;5.10;;;1.90;67.00;;;;;;5084527;28;20291;-85
2023/02/06 12:44:57;;;;;;;10.33;5.47;;;2.00;68.30;;;;;;5084009;28;20698;-84
2023/02/06 12:47:30;;;;;;;7.83;5.60;;;2.10;66.70;;;;;;5084553;28;20208;-86
2023/02/06 12:50:02;;;;;;;9.53;5.40;;;2.40;67.00;;;;;;5077509;28;20242;-86
2023/02/06 12:52:34;;;;;;;9.70;5.70;;;2.20;66.80;;;;;;5073017;28;20197;-86
2023/02/06 12:55:14;;;;;;;7.63;5.50;;;2.10;68.00;;;;;;5076939;28;20196;-87
2023/02/06 12:57:42;;;;;;;10.33;5.53;;;1.80;71.10;;;;;;5079214;28;20231;-89
2023/02/06 13:00:39;;;;;;;8.77;5.87;;;1.70;75.50;;;;;;5078252;28;20205;-88
2023/02/06 13:03:25;;;;;;;10.70;6.20;;;1.70;75.00;;;;;;5064920;28;20201;-87
2023/02/06 13:05:55;;;;;;;10.03;6.37;;;1.80;73.80;;;;;;5073399;28;20201;-87
2023/02/06 13:08:28;;;;;;;10.00;6.13;;;1.80;73.20;;;;;;5080593;28;20207;-85
2023/02/06 13:11:06;;;;;;;11.03;6.20;;;1.70;76.00;;;;;;5072439;28;20197;-89
2023/02/06 13:13:36;;;;;;;15.80;5.73;;;1.70;77.40;;;;;;5077071;28;20208;-87
2023/02/06 13:16:04;;;;;;;15.00;5.90;;;1.70;76.40;;;;;;5075675;28;20207;-85
2023/02/06 13:18:51;;;;;;;9.83;6.30;;;1.60;76.50;;;;;;5080545;28;20220;-85
2023/02/06 13:21:24;;;;;;;10.90;6.43;;;1.60;76.70;;;;;;5078317;28;20606;-87
2023/02/06 13:24:12;;;;;;;8.27;6.03;;;1.50;78.60;;;;;;5068787;28;20315;-88
2023/02/06 13:27:10;;;;;;;7.90;5.63;;;1.40;79.60;;;;;;5068102;28;20204;-87
2023/02/06 13:29:38;;;;;;;7.93;5.90;;;1.30;80.20;;;;;;5064702;28;20208;-87
2023/02/06 13:32:45;;;;;;;9.17;6.40;;;1.30;80.70;;;;;;5074681;28;20823;-88
2023/02/06 13:35:25;;;;;;;10.83;5.63;;;1.40;78.20;;;;;;5069155;28;20339;-86
2023/02/06 13:38:11;;;;;;;8.63;6.07;;;1.40;77.50;;;;;;5082446;28;20240;-85
2023/02/06 13:40:38;;;;;;;9.47;5.83;;;1.50;77.10;;;;;;5081712;28;20200;-84
2023/02/06 13:43:16;;;;;;;13.23;5.80;;;1.40;76.40;;;;;;5065632;28;20723;-86
2023/02/06 13:45:46;;;;;;;17.43;6.50;;;1.30;78.90;;;;;;5073810;28;20207;-87
2023/02/06 13:48:42;;;;;;;11.50;6.73;;;1.30;79.00;;;;;;5070297;28;20208;-86
2023/02/06 13:51:35;;;;;;;12.27;5.70;;;1.30;79.00;;;;;;5051935;28;20201;-91
2023/02/06 13:54:27;;;;;;;8.77;6.30;;;1.20;79.30;;;;;;5058965;28;20213;-90
2023/02/06 13:57:21;;;;;;;9.90;6.77;;;1.20;81.00;;;;;;5065011;28;20649;-85
2023/02/06 13:59:54;;;;;;;8.53;5.73;;;1.20;80.80;;;;;;5055988;28;20230;-86
2023/02/06 14:02:27;;;;;;;10.53;6.27;;;1.30;79.80;;;;;;5059033;28;20220;-87
2023/02/06 14:04:55;;;;;;;13.57;5.93;;;1.30;80.00;;;;;;5055724;28;20209;-88
2023/02/06 14:07:49;;;;;;;10.57;6.33;;;1.30;78.20;;;;;;5055984;28;20213;-87
2023/02/06 14:13:40;;;;;;;10.87;6.30;;;1.20;78.20;;;;;;5059284;28;20212;-84
2023/02/06 14:16:25;;;;;;;13.63;6.13;;;1.10;80.80;;;;;;5059596;28;20200;-86
2023/02/06 14:18:58;;;;;;;10.60;6.10;;;1.20;78.10;;;;;;5061688;28;20233;-85
2023/02/06 14:21:37;;;;;;;9.33;5.77;;;1.20;77.60;;;;;;5067594;28;20288;-91
2023/02/06 14:24:26;;;;;;;9.17;5.97;;;1.10;78.00;;;;;;5353843;23;20216;-91
2023/02/06 14:27:05;;;;;;;10.13;6.60;;;1.10;78.00;;;;;;5102602;22;20240;-92
2023/02/06 14:29:43;;;;;;;11.13;5.53;;;1.10;78.00;;;;;;5061132;28;20197;-92
2023/02/06 14:32:35;;;;;;;8.27;5.40;;;1.10;77.10;;;;;;5075303;28;20208;-85
2023/02/06 14:35:21;;;;;;;9.90;4.87;;;1.20;73.80;;;;;;5070560;28;20205;-89
2023/02/06 14:38:18;;;;;;;9.90;6.20;;;1.30;69.20;;;;;;5071668;28;20205;-88
2023/02/06 14:40:50;;;;;;;10.83;6.40;;;1.40;75.10;;;;;;5055085;28;20205;-91
2023/02/06 14:43:21;;;;;;;7.90;5.47;;;1.40;74.30;;;;;;5072720;28;20230;-87
2023/02/06 14:45:51;;;;;;;8.03;5.80;;;1.30;71.20;;;;;;5076706;28;20204;-90
2023/02/06 14:48:24;;;;;;;9.93;6.13;;;1.30;67.00;;;;;;5157092;22;20216;-89
2023/02/06 14:50:55;;;;;;;5.93;5.10;;;1.20;71.20;;;;;;5054844;28;21071;-87
2023/02/06 14:53:26;;;;;;;6.57;5.23;;;1.20;65.70;;;;;;5058463;28;20209;-88
2023/02/06 14:56:09;;;;;;;7.07;5.20;;;1.00;65.30;;;;;;5049685;28;20201;-86
2023/02/06 14:58:36;;;;;;;11.00;5.77;;;1.00;65.50;;;;;;5067103;28;20226;-84
2023/02/06 15:01:21;;;;;;;9.43;6.50;;;1.00;65.50;;;;;;5064115;28;20843;-86